SWR706 KJFK-OTHH
Flight info
| Callsign | SWR706 |
|---|---|
| Flight time | N/A |
| Altitude | 31000 |
| Route | MERIT DCT HFD DCT PUT DCT LBSTA DCT EBONY DCT VITUX DCT FROSS DCT MIGLI DCT RIKAL/M084F320 DCT 53N050W 55N040W 56N030W 56N020W DCT RESNO DCT NETKI/N0483F330 DCT NIBOG DCT REMSI DCT BELOX L603 TENSO/N0481F350 L603 DOLAS DCT NAVPI DCT DODEN DCT NEGIX DCT DINKU DCT BESNI DCT GOMIG DCT BEDOX DCT GUBOK DCT VEBAR DCT VABEK UL603 OLOTA DCT DISOR DCT MES/N0482F370 UL609 RDS DCT VANZA DCT LAKTO L560 SILKA M872 BDB Y214 KODIS/N0490F390 Y214 RAPMA/N0508F290 Y214 ASPUS Y432 LADBO T142 LAEEB |
| Aircraft | MD11/H-SDE1E2E3FGHIJ2J3J4J5M1RWXY/LB1D1 |
Departure
| Time | 2026-05-07 22:24 |
|---|---|
| Airport | John F. Kennedy International Airport (KJFK) |
Arrival
| Time | N/A |
|---|---|
| Airport | Hamad International Airport (OTHH) |
| Time | Latitude | Longitude | Altitude | Speed | Heading |
|---|---|---|---|---|---|
| 2026-05-07 20:43 | 40.64232 | -73.79268 | 27 ft | 0 kts | 151° |
| 2026-05-07 22:09 | 40.64246 | -73.79279 | 25 ft | 4 kts | 151° |
| 2026-05-07 22:09 | 40.64264 | -73.79292 | 26 ft | 4 kts | 152° |
| 2026-05-07 22:09 | 40.64288 | -73.79307 | 25 ft | 4 kts | 171° |
| 2026-05-07 22:10 | 40.64309 | -73.79307 | 27 ft | 4 kts | 211° |
| 2026-05-07 22:10 | 40.64326 | -73.79289 | 25 ft | 4 kts | 226° |
| 2026-05-07 22:10 | 40.64337 | -73.79274 | 28 ft | 1 kts | 224° |
| 2026-05-07 22:15 | 40.64336 | -73.79275 | 28 ft | 0 kts | 224° |
| 2026-05-07 22:15 | 40.64333 | -73.79279 | 28 ft | 1 kts | 224° |
| 2026-05-07 22:15 | 40.64319 | -73.79298 | 26 ft | 5 kts | 224° |
| 2026-05-07 22:15 | 40.64284 | -73.79338 | 26 ft | 9 kts | 218° |
| 2026-05-07 22:16 | 40.64225 | -73.79399 | 28 ft | 12 kts | 234° |
| 2026-05-07 22:16 | 40.64192 | -73.79484 | 28 ft | 11 kts | 226° |
| 2026-05-07 22:16 | 40.64106 | -73.79509 | 28 ft | 15 kts | 181° |
| 2026-05-07 22:16 | 40.63996 | -73.79494 | 28 ft | 16 kts | 154° |
| 2026-05-07 22:17 | 40.63921 | -73.79369 | 28 ft | 20 kts | 121° |
| 2026-05-07 22:17 | 40.63846 | -73.79204 | 28 ft | 22 kts | 121° |
| 2026-05-07 22:17 | 40.63762 | -73.79020 | 28 ft | 24 kts | 121° |
| 2026-05-07 22:17 | 40.63672 | -73.78822 | 29 ft | 25 kts | 121° |
| 2026-05-07 22:18 | 40.63585 | -73.78630 | 29 ft | 24 kts | 121° |
| 2026-05-07 22:18 | 40.63414 | -73.78251 | 29 ft | 24 kts | 121° |
| 2026-05-07 22:18 | 40.63335 | -73.78056 | 29 ft | 24 kts | 106° |
| 2026-05-07 22:19 | 40.63340 | -73.77907 | 29 ft | 11 kts | 86° |
| 2026-05-07 22:19 | 40.63316 | -73.77821 | 30 ft | 9 kts | 121° |
| 2026-05-07 22:19 | 40.63286 | -73.77755 | 31 ft | 9 kts | 120° |
| 2026-05-07 22:19 | 40.63252 | -73.77678 | 31 ft | 10 kts | 120° |
| 2026-05-07 22:20 | 40.63212 | -73.77592 | 30 ft | 12 kts | 122° |
| 2026-05-07 22:20 | 40.63163 | -73.77488 | 29 ft | 14 kts | 122° |
| 2026-05-07 22:20 | 40.63109 | -73.77367 | 29 ft | 16 kts | 120° |
| 2026-05-07 22:20 | 40.63050 | -73.77235 | 29 ft | 18 kts | 120° |
| 2026-05-07 22:21 | 40.62992 | -73.77112 | 28 ft | 13 kts | 127° |
| 2026-05-07 22:21 | 40.62917 | -73.77105 | 29 ft | 11 kts | 211° |
| 2026-05-07 22:21 | 40.62848 | -73.77162 | 29 ft | 12 kts | 212° |
| 2026-05-07 22:21 | 40.62829 | -73.77239 | 29 ft | 8 kts | 285° |
| 2026-05-07 22:22 | 40.62839 | -73.77263 | 28 ft | 0 kts | 300° |
| 2026-05-07 22:22 | 40.62849 | -73.77285 | 30 ft | 12 kts | 300° |
| 2026-05-07 22:23 | 40.63018 | -73.77655 | 33 ft | 82 kts | 301° |
| 2026-05-07 22:23 | 40.63410 | -73.78525 | 28 ft | 139 kts | 301° |
| 2026-05-07 22:23 | 40.63990 | -73.79781 | 31 ft | 178 kts | 301° |
| 2026-05-07 22:23 | 40.64636 | -73.81233 | 298 ft | 185 kts | 302° |
| 2026-05-07 22:24 | 40.65168 | -73.82786 | 760 ft | 191 kts | 281° |
| 2026-05-07 22:24 | 40.64998 | -73.84541 | 1187 ft | 201 kts | 246° |
| 2026-05-07 22:24 | 40.64217 | -73.86123 | 1398 ft | 213 kts | 232° |
| 2026-05-07 22:24 | 40.63171 | -73.87685 | 1421 ft | 238 kts | 227° |
| 2026-05-07 22:25 | 40.61934 | -73.89207 | 1560 ft | 248 kts | 223° |
| 2026-05-07 22:25 | 40.60445 | -73.90398 | 1681 ft | 259 kts | 196° |
| 2026-05-07 22:25 | 40.58621 | -73.90457 | 1870 ft | 268 kts | 172° |
| 2026-05-07 22:25 | 40.56829 | -73.89750 | 2193 ft | 269 kts | 162° |
| 2026-05-07 22:26 | 40.55061 | -73.88879 | 2469 ft | 275 kts | 162° |
| 2026-05-07 22:26 | 40.53210 | -73.87954 | 2591 ft | 296 kts | 161° |
| 2026-05-07 22:26 | 40.51277 | -73.86985 | 3095 ft | 302 kts | 161° |
| 2026-05-07 22:26 | 40.49290 | -73.85976 | 3669 ft | 310 kts | 161° |
| 2026-05-07 22:27 | 40.47266 | -73.84951 | 4317 ft | 311 kts | 161° |
| 2026-05-07 22:27 | 40.45230 | -73.83916 | 4991 ft | 315 kts | 161° |
| 2026-05-07 22:27 | 40.43166 | -73.82866 | 5656 ft | 318 kts | 161° |
| 2026-05-07 22:27 | 40.41090 | -73.81805 | 6337 ft | 322 kts | 161° |
| 2026-05-07 22:28 | 40.38978 | -73.80787 | 6962 ft | 324 kts | 166° |
| 2026-05-07 22:28 | 40.36821 | -73.79905 | 7583 ft | 326 kts | 168° |
| 2026-05-07 22:28 | 40.34628 | -73.79051 | 8181 ft | 329 kts | 169° |
| 2026-05-07 22:28 | 40.32422 | -73.78198 | 8783 ft | 331 kts | 169° |
| 2026-05-07 22:29 | 40.30206 | -73.77342 | 9358 ft | 334 kts | 170° |
| 2026-05-07 22:29 | 40.27975 | -73.76481 | 9931 ft | 336 kts | 171° |
| 2026-05-07 22:29 | 40.25738 | -73.75574 | 10196 ft | 350 kts | 165° |
| 2026-05-07 22:29 | 40.23581 | -73.73841 | 10358 ft | 379 kts | 143° |
| 2026-05-07 22:30 | 40.21923 | -73.71086 | 10845 ft | 395 kts | 122° |
| 2026-05-07 22:30 | 40.20990 | -73.67660 | 11348 ft | 407 kts | 102° |
| 2026-05-07 22:30 | 40.20908 | -73.63934 | 11833 ft | 415 kts | 83° |
| 2026-05-07 22:30 | 40.21702 | -73.60288 | 12293 ft | 419 kts | 63° |
| 2026-05-07 22:31 | 40.23294 | -73.57114 | 12763 ft | 419 kts | 44° |
| 2026-05-07 22:31 | 40.25531 | -73.54704 | 13193 ft | 414 kts | 24° |
| 2026-05-07 22:31 | 40.28154 | -73.53237 | 13614 ft | 409 kts | 10° |
| 2026-05-07 22:31 | 40.30911 | -73.52308 | 14029 ft | 409 kts | 6° |
| 2026-05-07 22:32 | 40.33715 | -73.51516 | 14490 ft | 411 kts | 5° |
| 2026-05-07 22:32 | 40.36480 | -73.50713 | 14924 ft | 414 kts | 6° |
| 2026-05-07 22:32 | 40.39332 | -73.49818 | 15379 ft | 418 kts | 7° |
| 2026-05-07 22:32 | 40.42164 | -73.48870 | 15823 ft | 421 kts | 8° |
| 2026-05-07 22:33 | 40.45007 | -73.47876 | 16277 ft | 424 kts | 8° |
| 2026-05-07 22:33 | 40.47826 | -73.46866 | 16723 ft | 427 kts | 8° |
| 2026-05-07 22:33 | 40.50696 | -73.45827 | 17154 ft | 429 kts | 8° |
| 2026-05-07 22:33 | 40.53589 | -73.44774 | 17601 ft | 432 kts | 8° |
| 2026-05-07 22:34 | 40.56492 | -73.43717 | 18039 ft | 435 kts | 8° |
| 2026-05-07 22:34 | 40.59417 | -73.42651 | 18414 ft | 437 kts | 8° |
| 2026-05-07 22:34 | 40.62364 | -73.41577 | 18776 ft | 440 kts | 8° |
| 2026-05-07 22:34 | 40.65326 | -73.40497 | 19140 ft | 443 kts | 8° |
| 2026-05-07 22:35 | 40.68308 | -73.39409 | 19503 ft | 445 kts | 8° |
| 2026-05-07 22:35 | 40.71309 | -73.38313 | 19867 ft | 448 kts | 7° |
| 2026-05-07 22:35 | 40.74322 | -73.37212 | 20208 ft | 450 kts | 7° |
| 2026-05-07 22:35 | 40.77347 | -73.36106 | 20564 ft | 453 kts | 7° |
| 2026-05-07 22:36 | 40.80390 | -73.34992 | 20920 ft | 455 kts | 7° |
| 2026-05-07 22:36 | 40.83450 | -73.33871 | 21255 ft | 458 kts | 7° |
| 2026-05-07 22:36 | 40.86535 | -73.32738 | 21626 ft | 460 kts | 7° |
| 2026-05-07 22:36 | 40.89629 | -73.31602 | 21967 ft | 462 kts | 6° |
| 2026-05-07 22:37 | 40.92729 | -73.30463 | 22313 ft | 464 kts | 6° |
| 2026-05-07 22:37 | 40.95813 | -73.29329 | 22651 ft | 467 kts | 6° |
| 2026-05-07 22:37 | 40.98959 | -73.28170 | 22982 ft | 469 kts | 6° |
| 2026-05-07 22:37 | 41.02120 | -73.27005 | 23325 ft | 471 kts | 6° |
| 2026-05-07 22:38 | 41.05286 | -73.25835 | 23617 ft | 473 kts | 6° |
| 2026-05-07 22:38 | 41.08428 | -73.24668 | 23893 ft | 475 kts | 6° |
| 2026-05-07 22:38 | 41.11617 | -73.23483 | 24153 ft | 477 kts | 6° |
| 2026-05-07 22:38 | 41.14824 | -73.22291 | 24432 ft | 479 kts | 6° |
| 2026-05-07 22:39 | 41.18048 | -73.21094 | 24697 ft | 482 kts | 6° |
| 2026-05-07 22:39 | 41.21282 | -73.19893 | 24960 ft | 484 kts | 6° |
| 2026-05-07 22:39 | 41.24544 | -73.18681 | 25224 ft | 486 kts | 6° |
| 2026-05-07 22:39 | 41.27802 | -73.17451 | 25487 ft | 489 kts | 7° |
| 2026-05-07 22:40 | 41.31059 | -73.15988 | 25735 ft | 497 kts | 13° |
| 2026-05-07 22:40 | 41.34234 | -73.14040 | 25992 ft | 509 kts | 21° |
| 2026-05-07 22:40 | 41.37217 | -73.11504 | 26241 ft | 520 kts | 30° |
| 2026-05-07 22:40 | 41.39984 | -73.08321 | 26469 ft | 530 kts | 40° |
| 2026-05-07 22:41 | 41.42424 | -73.04577 | 26694 ft | 538 kts | 50° |
| 2026-05-07 22:41 | 41.44529 | -73.00404 | 26906 ft | 544 kts | 56° |
| 2026-05-07 22:41 | 41.46434 | -72.96049 | 27109 ft | 547 kts | 58° |
| 2026-05-07 22:41 | 41.48259 | -72.91645 | 27331 ft | 549 kts | 59° |
| 2026-05-07 22:42 | 41.50106 | -72.87171 | 27543 ft | 551 kts | 58° |
| 2026-05-07 22:42 | 41.51989 | -72.82690 | 27754 ft | 553 kts | 58° |
| 2026-05-07 22:42 | 41.53904 | -72.78219 | 27957 ft | 555 kts | 57° |
| 2026-05-07 22:42 | 41.55843 | -72.73751 | 28171 ft | 557 kts | 57° |
| 2026-05-07 22:43 | 41.57801 | -72.69269 | 28350 ft | 560 kts | 57° |
| 2026-05-07 22:43 | 41.59769 | -72.64768 | 28537 ft | 562 kts | 57° |
| 2026-05-07 22:43 | 41.61743 | -72.60248 | 28742 ft | 564 kts | 57° |
| 2026-05-07 22:43 | 41.63699 | -72.55762 | 28935 ft | 566 kts | 57° |
| 2026-05-07 22:44 | 41.65704 | -72.51216 | 29098 ft | 568 kts | 56° |
| 2026-05-07 22:44 | 41.67736 | -72.46660 | 29302 ft | 570 kts | 56° |
| 2026-05-07 22:44 | 41.69782 | -72.42105 | 29507 ft | 571 kts | 56° |
| 2026-05-07 22:44 | 41.71830 | -72.37554 | 29789 ft | 571 kts | 56° |
| 2026-05-07 22:45 | 41.73880 | -72.32994 | 30043 ft | 571 kts | 56° |
| 2026-05-07 22:45 | 41.75920 | -72.28445 | 30275 ft | 571 kts | 56° |
| 2026-05-07 22:45 | 41.77969 | -72.23865 | 30474 ft | 572 kts | 56° |
| 2026-05-07 22:45 | 41.80019 | -72.19277 | 30594 ft | 574 kts | 56° |
| 2026-05-07 22:46 | 41.81374 | -72.16236 | 30673 ft | 576 kts | 56° |
| 2026-05-07 22:46 | 41.83434 | -72.11609 | 30794 ft | 579 kts | 56° |
| 2026-05-07 22:46 | 41.85503 | -72.06957 | 30831 ft | 583 kts | 56° |
| 2026-05-07 22:47 | 41.89672 | -71.97554 | 30834 ft | 589 kts | 56° |
| 2026-05-07 22:47 | 41.93870 | -71.88092 | 30815 ft | 587 kts | 54° |
| 2026-05-07 22:48 | 41.98852 | -71.79520 | 30822 ft | 578 kts | 42° |
| 2026-05-07 22:48 | 42.04433 | -71.71761 | 30809 ft | 576 kts | 40° |
| 2026-05-07 22:49 | 42.09994 | -71.64080 | 30816 ft | 577 kts | 41° |
| 2026-05-07 22:49 | 42.15501 | -71.56220 | 30808 ft | 577 kts | 42° |
| 2026-05-07 22:50 | 42.20972 | -71.48286 | 30808 ft | 577 kts | 42° |
| 2026-05-07 22:50 | 42.26432 | -71.40347 | 30798 ft | 576 kts | 42° |
| 2026-05-07 22:51 | 42.31862 | -71.32447 | 30796 ft | 576 kts | 42° |
| 2026-05-07 22:51 | 42.37311 | -71.24503 | 30782 ft | 575 kts | 42° |
| 2026-05-07 22:52 | 42.42750 | -71.16553 | 30786 ft | 575 kts | 43° |
| 2026-05-07 22:52 | 42.48179 | -71.08594 | 30780 ft | 575 kts | 43° |
| 2026-05-07 22:53 | 42.53589 | -71.00614 | 30778 ft | 574 kts | 43° |
| 2026-05-07 22:53 | 42.58981 | -70.92611 | 30767 ft | 574 kts | 43° |
| 2026-05-07 22:54 | 42.64377 | -70.84615 | 30775 ft | 573 kts | 43° |
| 2026-05-07 22:54 | 42.69732 | -70.76679 | 30768 ft | 573 kts | 43° |
| 2026-05-07 22:55 | 42.75116 | -70.68679 | 30777 ft | 572 kts | 43° |
| 2026-05-07 22:55 | 42.80446 | -70.60700 | 30775 ft | 572 kts | 44° |
| 2026-05-07 22:56 | 42.85681 | -70.52586 | 30782 ft | 572 kts | 45° |
| 2026-05-07 22:56 | 42.90668 | -70.44759 | 30775 ft | 571 kts | 45° |
| 2026-05-07 22:57 | 42.95853 | -70.36624 | 30785 ft | 569 kts | 45° |
| 2026-05-07 22:57 | 43.01051 | -70.28469 | 30784 ft | 567 kts | 45° |
| 2026-05-07 22:58 | 43.06230 | -70.20327 | 30793 ft | 565 kts | 45° |
| 2026-05-07 22:58 | 43.11384 | -70.12199 | 30784 ft | 564 kts | 46° |
| 2026-05-07 22:59 | 43.16482 | -70.04136 | 30787 ft | 563 kts | 46° |
| 2026-05-07 22:59 | 43.21605 | -69.96010 | 30778 ft | 562 kts | 46° |
| 2026-05-07 23:00 | 43.25848 | -69.89263 | 30783 ft | 561 kts | 47° |